createdAt,value
2017-07-06T00:00:21.052Z,12.59
2017-07-06T00:00:49.241Z,12.56
2017-07-06T00:01:17.567Z,12.55
2017-07-06T00:01:45.812Z,12.61
2017-07-06T00:02:13.889Z,12.61
2017-07-06T00:02:42.107Z,12.61
2017-07-06T00:03:10.332Z,12.63
2017-07-06T00:03:38.476Z,12.69
2017-07-06T00:04:06.490Z,12.71
2017-07-06T00:04:34.694Z,12.62
2017-07-06T00:05:02.726Z,12.69
2017-07-06T00:05:30.815Z,12.62
2017-07-06T00:05:58.927Z,12.71
2017-07-06T00:06:27.289Z,12.76
2017-07-06T00:06:55.520Z,12.74
2017-07-06T00:07:23.766Z,12.74
2017-07-06T00:07:51.864Z,12.69
2017-07-06T00:08:19.859Z,12.7
2017-07-06T00:08:48.050Z,12.77
2017-07-06T00:09:16.256Z,12.74
2017-07-06T00:09:44.341Z,12.69
2017-07-06T00:10:12.454Z,12.81
2017-07-06T00:10:40.556Z,12.66
2017-07-06T00:11:08.813Z,12.77
2017-07-06T00:11:37.092Z,12.7
2017-07-06T00:12:05.292Z,12.73
2017-07-06T00:12:33.432Z,12.71
2017-07-06T00:13:01.621Z,12.74
2017-07-06T00:13:29.806Z,12.74
2017-07-06T00:13:58.023Z,12.73
2017-07-06T00:14:26.149Z,12.78
2017-07-06T00:14:54.375Z,12.76
2017-07-06T00:15:22.540Z,12.62
2017-07-06T00:15:50.693Z,12.71
2017-07-06T00:16:18.842Z,12.69
2017-07-06T00:16:47.060Z,12.63
2017-07-06T00:17:15.182Z,12.66
2017-07-06T00:17:43.386Z,12.61
2017-07-06T00:18:11.574Z,12.65
2017-07-06T00:18:39.688Z,12.62
2017-07-06T00:19:07.771Z,12.63
2017-07-06T00:19:35.871Z,12.66
2017-07-06T00:20:04.097Z,12.65
2017-07-06T00:20:32.200Z,12.59
2017-07-06T00:21:00.185Z,12.55
2017-07-06T00:21:28.315Z,12.56
2017-07-06T00:21:56.612Z,12.47
2017-07-06T00:22:24.692Z,12.52
2017-07-06T00:22:52.806Z,12.52
2017-07-06T00:23:21.021Z,12.51
2017-07-06T00:23:49.229Z,12.44
2017-07-06T00:24:17.443Z,12.51
2017-07-06T00:24:45.549Z,12.44
2017-07-06T00:25:13.442Z,12.45
2017-07-06T00:25:41.451Z,12.47
2017-07-06T00:26:09.606Z,12.45
2017-07-06T00:26:37.822Z,12.55
2017-07-06T00:27:05.995Z,12.55
2017-07-06T00:27:34.204Z,12.48
2017-07-06T00:28:02.341Z,12.48
2017-07-06T00:28:30.562Z,12.52
2017-07-06T00:28:58.669Z,12.53
2017-07-06T00:29:26.862Z,12.47
2017-07-06T00:29:55.057Z,12.61
2017-07-06T00:30:23.064Z,12.59
2017-07-06T00:30:51.188Z,12.61
2017-07-06T00:31:19.387Z,12.61
2017-07-06T00:31:47.696Z,12.65
2017-07-06T00:32:15.626Z,12.65
2017-07-06T00:32:43.733Z,12.65
2017-07-06T00:33:11.632Z,12.63
2017-07-06T00:33:39.710Z,12.63
2017-07-06T00:34:07.705Z,12.63
2017-07-06T00:34:35.921Z,12.65
2017-07-06T00:35:04.156Z,12.69
2017-07-06T00:35:32.366Z,12.62
2017-07-06T00:36:00.494Z,12.69
2017-07-06T00:36:28.626Z,12.66
2017-07-06T00:36:56.766Z,12.66
2017-07-06T00:37:24.852Z,12.56
2017-07-06T00:37:53.027Z,12.66
2017-07-06T00:38:21.220Z,12.73
2017-07-06T00:38:49.280Z,12.77
2017-07-06T00:39:17.443Z,12.76
2017-07-06T00:39:45.434Z,12.73
2017-07-06T00:40:13.421Z,12.69
2017-07-06T00:40:41.464Z,12.76
2017-07-06T00:41:09.592Z,12.77
2017-07-06T00:41:37.758Z,12.7
2017-07-06T00:42:05.840Z,12.66
2017-07-06T00:42:34.007Z,12.78
2017-07-06T00:43:02.081Z,12.71
2017-07-06T00:43:30.201Z,12.73
2017-07-06T00:43:58.277Z,12.74
2017-07-06T00:44:26.296Z,12.8
2017-07-06T00:44:54.217Z,12.8
2017-07-06T00:45:22.119Z,12.78
2017-07-06T00:45:50.677Z,12.73
2017-07-06T00:46:18.811Z,12.74
2017-07-06T00:46:46.911Z,12.73
2017-07-06T00:47:15.130Z,12.73
2017-07-06T00:47:43.095Z,12.73
2017-07-06T00:48:10.989Z,12.71
2017-07-06T00:48:39.204Z,12.76
2017-07-06T00:49:07.322Z,12.73
2017-07-06T00:49:35.421Z,12.74
2017-07-06T00:50:03.673Z,12.65
2017-07-06T00:50:31.806Z,12.76
2017-07-06T00:50:59.830Z,12.61
2017-07-06T00:51:27.914Z,12.65
2017-07-06T00:51:56.196Z,12.73
2017-07-06T00:52:24.188Z,12.77
2017-07-06T00:52:52.318Z,12.74
2017-07-06T00:53:20.281Z,12.76
2017-07-06T00:53:48.514Z,12.63
2017-07-06T00:54:16.614Z,12.74
2017-07-06T00:54:44.791Z,12.73
2017-07-06T00:55:12.852Z,12.62
2017-07-06T00:55:40.963Z,12.63
2017-07-06T00:56:08.949Z,12.62
2017-07-06T00:56:36.838Z,12.63
2017-07-06T00:57:05.153Z,12.66
2017-07-06T00:57:33.373Z,12.62
2017-07-06T00:58:01.452Z,12.58
2017-07-06T00:58:29.688Z,12.61
2017-07-06T00:58:57.948Z,12.56
2017-07-06T00:59:26.168Z,12.59
2017-07-06T00:59:54.378Z,12.59
2017-07-06T01:00:22.652Z,12.52
2017-07-06T01:00:50.836Z,12.56
2017-07-06T01:01:19.040Z,12.48
2017-07-06T01:01:47.255Z,12.45
2017-07-06T01:02:15.357Z,12.48
2017-07-06T01:02:43.382Z,12.36
2017-07-06T01:03:11.520Z,12.33
2017-07-06T01:03:39.686Z,12.31
2017-07-06T01:04:07.660Z,12.38
2017-07-06T01:04:35.710Z,12.44
2017-07-06T01:05:03.875Z,12.33
2017-07-06T01:05:32.013Z,12.36
2017-07-06T01:06:00.204Z,12.38
2017-07-06T01:06:28.328Z,12.34
2017-07-06T01:06:56.420Z,12.34
2017-07-06T01:07:24.771Z,12.23
2017-07-06T01:07:52.755Z,12.37
2017-07-06T01:08:20.634Z,12.37
2017-07-06T01:08:48.760Z,12.44
2017-07-06T01:09:16.951Z,12.47
2017-07-06T01:09:44.939Z,12.47
2017-07-06T01:10:13.126Z,12.41
2017-07-06T01:10:41.254Z,12.52
2017-07-06T01:11:09.428Z,12.47
2017-07-06T01:11:37.639Z,12.45
2017-07-06T01:12:06.063Z,12.4
2017-07-06T01:12:34.239Z,12.41
2017-07-06T01:13:02.365Z,12.43
2017-07-06T01:13:30.566Z,12.45
2017-07-06T01:13:58.493Z,12.36
2017-07-06T01:14:26.720Z,12.38
2017-07-06T01:14:54.998Z,12.33
2017-07-06T01:15:22.879Z,12.29
2017-07-06T01:15:50.959Z,12.4
2017-07-06T01:16:19.185Z,12.38
2017-07-06T01:16:47.271Z,12.34
2017-07-06T01:17:15.543Z,12.37
2017-07-06T01:17:43.564Z,12.25
2017-07-06T01:18:11.752Z,12.26
2017-07-06T01:18:39.951Z,12.33
2017-07-06T01:19:07.767Z,12.28
2017-07-06T01:19:35.865Z,12.18
2017-07-06T01:20:03.948Z,12.15
2017-07-06T01:20:32.021Z,12.11
2017-07-06T01:21:00.237Z,12.03
2017-07-06T01:21:28.146Z,11.94
2017-07-06T01:21:56.272Z,11.98
2017-07-06T01:22:24.536Z,11.91
2017-07-06T01:22:52.619Z,11.81
2017-07-06T01:23:20.536Z,11.84
2017-07-06T01:23:48.527Z,11.82
2017-07-06T01:24:16.628Z,11.86
2017-07-06T01:24:44.842Z,11.78
2017-07-06T01:25:12.834Z,11.78
2017-07-06T01:25:40.972Z,11.78
2017-07-06T01:26:09.174Z,11.68
2017-07-06T01:26:37.261Z,11.73
2017-07-06T01:27:05.389Z,11.66
2017-07-06T01:27:33.528Z,11.7
2017-07-06T01:28:01.611Z,11.76
2017-07-06T01:28:29.831Z,11.64
2017-07-06T01:28:57.858Z,11.64
2017-07-06T01:29:25.990Z,11.63
2017-07-06T01:29:54.119Z,11.57
2017-07-06T01:30:22.224Z,11.51
2017-07-06T01:30:50.325Z,11.46
2017-07-06T01:31:18.527Z,11.46
2017-07-06T01:31:46.726Z,11.52
2017-07-06T01:32:14.847Z,11.43
2017-07-06T01:32:43.168Z,11.51
2017-07-06T01:33:11.181Z,11.42
2017-07-06T01:33:39.164Z,11.41
2017-07-06T01:34:07.054Z,11.48
2017-07-06T01:34:35.212Z,11.43
2017-07-06T01:35:03.187Z,11.43
2017-07-06T01:35:31.383Z,11.42
2017-07-06T01:35:59.549Z,11.49
2017-07-06T01:36:27.653Z,11.35
2017-07-06T01:36:55.833Z,11.45
2017-07-06T01:37:23.905Z,11.46
2017-07-06T01:37:51.805Z,11.49
2017-07-06T01:38:19.943Z,11.41
2017-07-06T01:38:48.053Z,11.53
2017-07-06T01:39:16.293Z,11.42
2017-07-06T01:39:44.463Z,11.48
2017-07-06T01:40:12.467Z,11.39
2017-07-06T01:40:40.653Z,11.35
2017-07-06T01:41:08.553Z,11.33
2017-07-06T01:41:36.698Z,11.41
2017-07-06T01:42:04.714Z,11.35
2017-07-06T01:42:33.019Z,11.39
2017-07-06T01:43:01.152Z,11.48
2017-07-06T01:43:29.384Z,11.35
2017-07-06T01:43:57.532Z,11.34
2017-07-06T01:44:25.621Z,11.38
2017-07-06T01:44:53.676Z,11.34
2017-07-06T01:45:21.601Z,11.38
2017-07-06T01:45:49.610Z,11.33
2017-07-06T01:46:17.877Z,11.23
2017-07-06T01:46:46.109Z,11.24
2017-07-06T01:47:14.056Z,11.3
2017-07-06T01:47:42.259Z,11.28
2017-07-06T01:48:10.479Z,11.3
2017-07-06T01:48:38.622Z,11.28
2017-07-06T01:49:06.733Z,11.21
2017-07-06T01:49:34.989Z,11.27
2017-07-06T01:50:03.120Z,11.15
2017-07-06T01:50:31.370Z,11.16
2017-07-06T01:50:59.371Z,11.21
2017-07-06T01:51:27.578Z,11.1
2017-07-06T01:51:55.884Z,11.16
2017-07-06T01:52:23.982Z,11.16
2017-07-06T01:52:52.185Z,11.2
2017-07-06T01:53:20.361Z,11.2
2017-07-06T01:53:48.297Z,11.16
2017-07-06T01:54:16.509Z,11.13
2017-07-06T01:54:44.680Z,11.18
2017-07-06T01:55:12.783Z,11.15
2017-07-06T01:55:40.980Z,11.16
2017-07-06T01:56:09.052Z,11.16
2017-07-06T01:56:37.123Z,11.18
2017-07-06T01:57:05.234Z,11.24
2017-07-06T01:57:33.182Z,11.26
2017-07-06T01:58:01.283Z,11.27
2017-07-06T01:58:29.271Z,11.23
2017-07-06T01:58:57.285Z,11.2
2017-07-06T01:59:25.243Z,11.33
2017-07-06T01:59:53.178Z,11.27
2017-07-06T02:00:21.174Z,11.28
2017-07-06T02:00:49.263Z,11.33
2017-07-06T02:01:17.378Z,11.34
2017-07-06T02:01:45.558Z,11.3
2017-07-06T02:02:13.547Z,11.33
2017-07-06T02:02:41.812Z,11.26
2017-07-06T02:03:09.887Z,11.48
2017-07-06T02:03:37.969Z,11.31
2017-07-06T02:04:06.027Z,11.39
2017-07-06T02:04:34.215Z,11.33
2017-07-06T02:05:02.390Z,11.27
2017-07-06T02:05:30.591Z,11.34
2017-07-06T02:05:58.716Z,11.48
2017-07-06T02:06:26.784Z,11.26
2017-07-06T02:06:54.897Z,11.33
2017-07-06T02:07:22.879Z,11.38
2017-07-06T02:07:51.190Z,11.33
2017-07-06T02:08:19.381Z,11.23
2017-07-06T02:08:47.457Z,11.23
2017-07-06T02:09:15.589Z,11.3
2017-07-06T02:09:43.685Z,11.24
2017-07-06T02:10:11.857Z,11.16
2017-07-06T02:10:39.849Z,11.3
2017-07-06T02:11:07.876Z,11.28
2017-07-06T02:11:35.956Z,11.18
2017-07-06T02:12:04.083Z,11.27
2017-07-06T02:12:32.069Z,11.28
2017-07-06T02:13:00.271Z,11.27
2017-07-06T02:13:28.363Z,11.18
2017-07-06T02:13:56.511Z,11.15
2017-07-06T02:14:24.722Z,11.27
2017-07-06T02:14:52.696Z,11.27
2017-07-06T02:15:20.811Z,11.27
2017-07-06T02:15:48.908Z,11.21
2017-07-06T02:16:17.025Z,11.18
2017-07-06T02:16:45.142Z,11.18
2017-07-06T02:17:13.282Z,11.2
2017-07-06T02:17:41.279Z,11.24
2017-07-06T02:18:09.510Z,11.24
2017-07-06T02:18:37.624Z,11.27
2017-07-06T02:19:05.606Z,11.2
2017-07-06T02:19:33.843Z,11.28
2017-07-06T02:20:01.949Z,11.33
2017-07-06T02:20:30.048Z,11.34
2017-07-06T02:20:58.265Z,11.39
2017-07-06T02:21:26.135Z,11.31
2017-07-06T02:21:54.137Z,11.39
2017-07-06T02:22:22.074Z,11.39
2017-07-06T02:22:50.217Z,11.38
2017-07-06T02:23:18.543Z,11.34
2017-07-06T02:23:46.517Z,11.35
2017-07-06T02:24:14.545Z,11.45
2017-07-06T02:24:42.658Z,11.39
2017-07-06T02:25:10.754Z,11.38
2017-07-06T02:25:38.735Z,11.41
2017-07-06T02:26:06.973Z,11.35
2017-07-06T02:26:35.060Z,11.46
2017-07-06T02:27:03.296Z,11.38
2017-07-06T02:27:31.494Z,11.51
2017-07-06T02:27:59.794Z,11.35
2017-07-06T02:28:27.916Z,11.46
2017-07-06T02:28:55.985Z,11.46
2017-07-06T02:29:24.203Z,11.48
2017-07-06T02:29:52.209Z,11.48
2017-07-06T02:30:20.430Z,11.52
2017-07-06T02:30:48.633Z,11.43
2017-07-06T02:31:16.708Z,11.66
2017-07-06T02:31:44.742Z,11.57
2017-07-06T02:32:12.865Z,11.53
2017-07-06T02:32:40.862Z,11.52
2017-07-06T02:33:09.292Z,11.52
2017-07-06T02:33:37.521Z,11.46
2017-07-06T02:34:05.499Z,11.45
2017-07-06T02:34:33.623Z,11.49
2017-07-06T02:35:01.713Z,11.46
2017-07-06T02:35:29.939Z,11.46
2017-07-06T02:35:58.046Z,11.42
2017-07-06T02:36:26.139Z,11.41
2017-07-06T02:36:54.226Z,11.48
2017-07-06T02:37:22.329Z,11.34
2017-07-06T02:37:50.315Z,11.33
2017-07-06T02:38:18.359Z,11.33
2017-07-06T02:38:46.433Z,11.35
2017-07-06T02:39:14.651Z,11.42
2017-07-06T02:39:42.789Z,11.39
2017-07-06T02:40:10.769Z,11.33
2017-07-06T02:40:38.884Z,11.33
2017-07-06T02:41:07.102Z,11.31
2017-07-06T02:41:35.327Z,11.23
2017-07-06T02:42:03.334Z,11.27
2017-07-06T02:42:31.410Z,11.35
2017-07-06T02:42:59.324Z,11.3
2017-07-06T02:43:27.956Z,11.3
2017-07-06T02:43:56.029Z,11.16
2017-07-06T02:44:24.244Z,11.3
2017-07-06T02:44:52.467Z,11.12
2017-07-06T02:45:20.633Z,11.33
2017-07-06T02:45:48.759Z,11.27
2017-07-06T02:46:17.222Z,11.23
2017-07-06T02:46:45.444Z,11.24
2017-07-06T02:47:13.557Z,11.27
2017-07-06T02:47:41.548Z,11.26
2017-07-06T02:48:09.550Z,11.21
2017-07-06T02:48:37.681Z,11.3
2017-07-06T02:49:05.717Z,11.27
2017-07-06T02:49:34.338Z,11.3
2017-07-06T02:50:02.530Z,11.2
2017-07-06T02:50:30.501Z,11.42
2017-07-06T02:50:58.557Z,11.23
2017-07-06T02:51:26.737Z,11.27
2017-07-06T02:51:54.784Z,11.3
2017-07-06T02:52:22.768Z,11.39
2017-07-06T02:52:50.991Z,11.34
2017-07-06T02:53:19.174Z,11.26
2017-07-06T02:53:47.272Z,11.28
2017-07-06T02:54:15.356Z,11.34
2017-07-06T02:54:43.589Z,11.31
2017-07-06T02:55:11.591Z,11.39
2017-07-06T02:55:39.551Z,11.34
2017-07-06T02:56:07.664Z,11.38
2017-07-06T02:56:35.906Z,11.41
2017-07-06T02:57:04.013Z,11.39
2017-07-06T02:57:31.891Z,11.43
2017-07-06T02:58:00.005Z,11.39
2017-07-06T02:58:28.099Z,11.45
2017-07-06T02:58:56.298Z,11.46
2017-07-06T02:59:24.405Z,11.42
2017-07-06T02:59:52.501Z,11.35
2017-07-06T03:00:20.666Z,11.31
2017-07-06T03:00:48.784Z,11.43
2017-07-06T03:01:16.906Z,11.33
2017-07-06T03:01:45.138Z,11.27
2017-07-06T03:02:13.329Z,11.26
2017-07-06T03:02:41.536Z,11.3
2017-07-06T03:03:09.771Z,11.21
2017-07-06T03:03:38.117Z,11.21
2017-07-06T03:04:06.339Z,11.18
2017-07-06T03:04:34.446Z,11.12
2017-07-06T03:05:02.595Z,11.21
2017-07-06T03:05:30.789Z,11.15
2017-07-06T03:05:58.994Z,11.13
2017-07-06T03:06:27.195Z,11.21
2017-07-06T03:06:55.394Z,11.2
2017-07-06T03:07:23.661Z,11.15
2017-07-06T03:07:51.769Z,11.23
2017-07-06T03:08:19.958Z,11.15
2017-07-06T03:08:48.181Z,11.26
2017-07-06T03:09:16.383Z,11.2
2017-07-06T03:09:44.554Z,11.2
2017-07-06T03:10:12.555Z,11.24
2017-07-06T03:10:40.754Z,11.16
2017-07-06T03:11:08.959Z,11.18
2017-07-06T03:11:37.140Z,11.26
2017-07-06T03:12:05.263Z,11.18
2017-07-06T03:12:33.350Z,11.18
2017-07-06T03:13:01.430Z,11.18
2017-07-06T03:13:29.559Z,11.08
2017-07-06T03:13:57.776Z,11.13
2017-07-06T03:14:25.846Z,11.15
2017-07-06T03:14:53.924Z,11.12
2017-07-06T03:15:22.126Z,11.08
2017-07-06T03:15:50.389Z,11.08
2017-07-06T03:16:18.395Z,11.12
2017-07-06T03:16:46.473Z,10.97
2017-07-06T03:17:14.681Z,10.94
2017-07-06T03:17:42.843Z,11.06
2017-07-06T03:18:10.844Z,10.97
2017-07-06T03:18:39.146Z,11
2017-07-06T03:19:07.323Z,11.03
2017-07-06T03:19:35.538Z,11
2017-07-06T03:20:03.620Z,11.03
2017-07-06T03:20:31.658Z,11
2017-07-06T03:20:59.864Z,11
2017-07-06T03:21:28.080Z,11.02
2017-07-06T03:21:56.124Z,11
2017-07-06T03:22:24.130Z,10.97
2017-07-06T03:22:52.342Z,10.95
2017-07-06T03:23:20.433Z,10.92
2017-07-06T03:23:48.500Z,10.84
2017-07-06T03:24:16.908Z,10.87
2017-07-06T03:24:45.097Z,10.83
2017-07-06T03:25:13.305Z,10.73
2017-07-06T03:25:41.498Z,10.72
2017-07-06T03:26:09.697Z,10.69
2017-07-06T03:26:37.811Z,10.72
2017-07-06T03:27:06.024Z,10.54
2017-07-06T03:27:34.119Z,10.57
2017-07-06T03:28:02.313Z,10.63
2017-07-06T03:28:30.434Z,10.61
2017-07-06T03:28:58.777Z,10.63
2017-07-06T03:29:27.019Z,10.65
2017-07-06T03:29:55.034Z,10.69
2017-07-06T03:30:23.236Z,10.67
2017-07-06T03:30:51.456Z,10.7
2017-07-06T03:31:19.473Z,10.77
2017-07-06T03:31:47.655Z,10.8
2017-07-06T03:32:15.819Z,10.88
2017-07-06T03:32:44.030Z,10.9
2017-07-06T03:33:12.201Z,11
2017-07-06T03:33:40.321Z,11.03
2017-07-06T03:34:08.545Z,11.1
2017-07-06T03:34:36.845Z,11.08
2017-07-06T03:35:05.056Z,11.06
2017-07-06T03:35:33.259Z,11.06
2017-07-06T03:36:01.488Z,11
2017-07-06T03:36:29.709Z,11.06
2017-07-06T03:36:57.805Z,10.97
2017-07-06T03:37:26.043Z,10.91
2017-07-06T03:37:54.231Z,10.9
2017-07-06T03:38:22.327Z,10.92
2017-07-06T03:38:50.583Z,10.95
2017-07-06T03:39:18.781Z,10.97
2017-07-06T03:39:46.848Z,10.97
2017-07-06T03:40:14.940Z,10.94
2017-07-06T03:40:43.000Z,11.06
2017-07-06T03:41:10.898Z,11.08
2017-07-06T03:41:38.822Z,11.12
2017-07-06T03:42:07.039Z,11.16
2017-07-06T03:42:35.027Z,11.24
2017-07-06T03:43:03.208Z,11.24
2017-07-06T03:43:31.302Z,11.3
2017-07-06T03:43:59.301Z,11.31
2017-07-06T03:44:27.421Z,11.28
2017-07-06T03:44:55.521Z,11.3
2017-07-06T03:45:23.524Z,11.18
2017-07-06T03:45:51.706Z,11.24
2017-07-06T03:46:19.810Z,11.35
2017-07-06T03:46:48.050Z,11.28
2017-07-06T03:47:16.107Z,11.27
2017-07-06T03:47:44.119Z,11.23
2017-07-06T03:48:12.268Z,11.35
2017-07-06T03:48:40.252Z,11.26
2017-07-06T03:49:08.355Z,11.28
2017-07-06T03:49:36.599Z,11.33
2017-07-06T03:50:04.781Z,11.33
2017-07-06T03:50:32.883Z,11.35
2017-07-06T03:51:01.093Z,11.51
2017-07-06T03:51:29.303Z,11.33
2017-07-06T03:51:57.084Z,11.48
2017-07-06T03:52:25.277Z,11.48
2017-07-06T03:52:53.364Z,11.57
2017-07-06T03:53:21.394Z,11.51
2017-07-06T03:53:49.598Z,11.51
2017-07-06T03:54:17.659Z,11.51
2017-07-06T03:54:45.884Z,11.61
2017-07-06T03:55:13.770Z,11.51
2017-07-06T03:55:41.878Z,11.46
2017-07-06T03:56:09.991Z,11.39
2017-07-06T03:56:38.014Z,11.48
2017-07-06T03:57:06.212Z,11.31
2017-07-06T03:57:34.301Z,11.38
2017-07-06T03:58:02.358Z,11.35
2017-07-06T03:58:30.459Z,11.31
2017-07-06T03:58:58.466Z,11.34
2017-07-06T03:59:26.786Z,11.24
2017-07-06T03:59:54.912Z,11.27
2017-07-06T04:00:23.221Z,11.34
2017-07-06T04:00:51.356Z,11.3
2017-07-06T04:01:19.517Z,11.3
2017-07-06T04:01:47.741Z,11.39
2017-07-06T04:02:15.789Z,11.35
2017-07-06T04:02:43.890Z,11.33
2017-07-06T04:03:12.004Z,11.31
2017-07-06T04:03:40.101Z,11.38
2017-07-06T04:04:08.124Z,11.49
2017-07-06T04:04:36.341Z,11.45
2017-07-06T04:05:04.598Z,11.48
2017-07-06T04:05:32.790Z,11.35
2017-07-06T04:06:00.915Z,11.48
2017-07-06T04:06:29.041Z,11.48
2017-07-06T04:06:57.115Z,11.39
2017-07-06T04:07:25.336Z,11.35
2017-07-06T04:07:53.362Z,11.39
2017-07-06T04:08:21.479Z,11.33
2017-07-06T04:08:49.397Z,11.27
2017-07-06T04:09:17.696Z,11.27
2017-07-06T04:09:45.798Z,11.35
2017-07-06T04:10:14.011Z,11.34
2017-07-06T04:10:42.157Z,11.43
2017-07-06T04:11:10.304Z,11.38
2017-07-06T04:11:38.545Z,11.45
2017-07-06T04:12:06.687Z,11.43
2017-07-06T04:12:34.752Z,11.45
2017-07-06T04:13:02.946Z,11.53
2017-07-06T04:13:30.936Z,11.48
2017-07-06T04:13:59.180Z,11.56
2017-07-06T04:14:27.365Z,11.53
2017-07-06T04:14:55.488Z,11.46
2017-07-06T04:15:23.599Z,11.51
2017-07-06T04:15:51.676Z,11.48
2017-07-06T04:16:19.778Z,11.49
2017-07-06T04:16:47.939Z,11.49
2017-07-06T04:17:16.035Z,11.45
2017-07-06T04:17:44.271Z,11.48
2017-07-06T04:18:12.518Z,11.41
2017-07-06T04:18:40.702Z,11.35
2017-07-06T04:19:08.788Z,11.24
2017-07-06T04:19:36.912Z,11.35
2017-07-06T04:20:05.046Z,11.16
2017-07-06T04:20:33.159Z,11.21
2017-07-06T04:21:01.349Z,11.26
2017-07-06T04:21:29.481Z,11.15
2017-07-06T04:21:57.654Z,11.13
2017-07-06T04:22:25.639Z,11.13
2017-07-06T04:22:53.615Z,11.15
2017-07-06T04:23:21.822Z,11.1
2017-07-06T04:23:49.915Z,11.13
2017-07-06T04:24:18.106Z,11.1
2017-07-06T04:24:46.333Z,11.09
2017-07-06T04:25:14.526Z,11.1
2017-07-06T04:25:42.579Z,10.98
2017-07-06T04:26:10.697Z,11
2017-07-06T04:26:38.710Z,10.94
2017-07-06T04:27:06.823Z,10.97
2017-07-06T04:27:34.793Z,10.94
2017-07-06T04:28:02.918Z,10.84
2017-07-06T04:28:31.008Z,10.77
2017-07-06T04:28:59.251Z,10.79
2017-07-06T04:29:27.315Z,10.84
2017-07-06T04:29:55.659Z,10.85
2017-07-06T04:30:23.875Z,10.8
2017-07-06T04:30:52.118Z,10.8
2017-07-06T04:31:20.292Z,10.66
2017-07-06T04:31:48.527Z,10.73
2017-07-06T04:32:16.620Z,10.72
2017-07-06T04:32:44.851Z,10.63
2017-07-06T04:33:12.913Z,10.58
2017-07-06T04:33:41.098Z,10.66
2017-07-06T04:34:09.184Z,10.65
2017-07-06T04:34:37.444Z,10.52
2017-07-06T04:35:05.495Z,10.59
2017-07-06T04:35:33.716Z,10.61
2017-07-06T04:36:01.703Z,10.54
2017-07-06T04:36:29.816Z,10.66
2017-07-06T04:36:57.817Z,10.69
2017-07-06T04:37:25.985Z,10.67
2017-07-06T04:37:53.974Z,10.67
2017-07-06T04:38:22.171Z,10.72
2017-07-06T04:38:50.349Z,10.63
2017-07-06T04:39:18.584Z,10.72
2017-07-06T04:39:46.748Z,10.77
2017-07-06T04:40:14.850Z,10.7
2017-07-06T04:40:43.088Z,10.76
2017-07-06T04:41:11.157Z,10.72
2017-07-06T04:41:39.304Z,10.8
2017-07-06T04:42:07.525Z,10.8
2017-07-06T04:42:35.667Z,10.85
2017-07-06T04:43:03.890Z,10.79
2017-07-06T04:43:32.113Z,10.84
2017-07-06T04:44:00.264Z,10.9
2017-07-06T04:44:28.404Z,10.9
2017-07-06T04:44:56.746Z,10.9
2017-07-06T04:45:24.893Z,10.94
2017-07-06T04:45:53.117Z,10.95
2017-07-06T04:46:21.302Z,11.02
2017-07-06T04:46:49.520Z,10.94
2017-07-06T04:47:17.732Z,11.1
2017-07-06T04:47:45.720Z,11.09
2017-07-06T04:48:13.725Z,11.06
2017-07-06T04:48:41.742Z,11.13
2017-07-06T04:49:09.895Z,11.09
2017-07-06T04:49:38.152Z,11.06
2017-07-06T04:50:06.393Z,11.12
2017-07-06T04:50:34.499Z,11.08
2017-07-06T04:51:02.599Z,11.05
2017-07-06T04:51:30.720Z,11.06
2017-07-06T04:51:58.805Z,11.1
2017-07-06T04:52:27.015Z,10.95
2017-07-06T04:52:55.121Z,11.06
2017-07-06T04:53:23.297Z,11.03
2017-07-06T04:53:51.396Z,11.05
2017-07-06T04:54:19.309Z,11.1
2017-07-06T04:54:47.541Z,11.09
2017-07-06T04:55:15.740Z,11.02
2017-07-06T04:55:43.756Z,11
2017-07-06T04:56:11.777Z,11.02
2017-07-06T04:56:40.026Z,10.98
2017-07-06T04:57:08.178Z,10.97
2017-07-06T04:57:36.443Z,10.94
2017-07-06T04:58:04.655Z,10.94
2017-07-06T04:58:32.761Z,10.88
2017-07-06T04:59:00.759Z,10.92
2017-07-06T04:59:28.890Z,10.85
2017-07-06T04:59:57.071Z,10.84
2017-07-06T05:00:25.209Z,10.88
2017-07-06T05:00:53.291Z,10.8
2017-07-06T05:01:21.447Z,10.87
2017-07-06T05:01:49.491Z,10.8
2017-07-06T05:02:17.554Z,10.84
2017-07-06T05:02:45.558Z,10.87
2017-07-06T05:03:13.498Z,10.84
2017-07-06T05:03:41.623Z,10.84
2017-07-06T05:04:09.863Z,10.87
2017-07-06T05:04:37.990Z,10.85
2017-07-06T05:05:06.189Z,10.79
2017-07-06T05:05:34.090Z,10.85
2017-07-06T05:06:02.170Z,10.8
2017-07-06T05:06:30.095Z,10.76
2017-07-06T05:06:58.275Z,10.83
2017-07-06T05:07:26.468Z,10.83
2017-07-06T05:07:54.560Z,10.84
2017-07-06T05:08:22.672Z,10.87
2017-07-06T05:08:50.898Z,10.83
2017-07-06T05:09:19.065Z,10.83
2017-07-06T05:09:47.068Z,10.84
2017-07-06T05:10:15.301Z,10.9
2017-07-06T05:10:43.407Z,10.8
2017-07-06T05:11:11.398Z,10.79
2017-07-06T05:11:39.500Z,10.8
2017-07-06T05:12:07.641Z,10.79
2017-07-06T05:12:35.682Z,10.87
2017-07-06T05:13:03.854Z,10.91
2017-07-06T05:13:31.955Z,10.87
2017-07-06T05:14:00.105Z,10.87
2017-07-06T05:14:28.324Z,10.83
2017-07-06T05:14:56.214Z,10.84
2017-07-06T05:15:24.451Z,10.79
2017-07-06T05:15:52.677Z,10.8
2017-07-06T05:16:20.898Z,10.79
2017-07-06T05:16:49.053Z,10.84
2017-07-06T05:17:17.181Z,10.8
2017-07-06T05:17:45.281Z,10.83
2017-07-06T05:18:13.201Z,10.85
2017-07-06T05:18:41.325Z,10.85
2017-07-06T05:19:09.230Z,10.83
2017-07-06T05:19:37.261Z,10.85
2017-07-06T05:20:05.449Z,10.83
2017-07-06T05:20:33.698Z,10.8
2017-07-06T05:21:01.901Z,10.75
2017-07-06T05:21:30.054Z,10.76
2017-07-06T05:21:58.017Z,10.75
2017-07-06T05:22:26.118Z,10.72
2017-07-06T05:22:54.221Z,10.72
2017-07-06T05:23:22.394Z,10.73
2017-07-06T05:23:50.387Z,10.75
2017-07-06T05:24:18.504Z,10.63
2017-07-06T05:24:46.632Z,10.66
2017-07-06T05:25:14.946Z,10.65
2017-07-06T05:25:43.160Z,10.65
2017-07-06T05:26:11.266Z,10.72
2017-07-06T05:26:39.388Z,10.67
2017-07-06T05:27:07.524Z,10.63
2017-07-06T05:27:35.662Z,10.73
2017-07-06T05:28:03.866Z,10.66
2017-07-06T05:28:32.037Z,10.69
2017-07-06T05:29:00.140Z,10.66
2017-07-06T05:29:28.278Z,10.7
2017-07-06T05:29:56.427Z,10.67
2017-07-06T05:30:24.886Z,10.66
2017-07-06T05:30:52.947Z,10.67
2017-07-06T05:31:21.189Z,10.65
2017-07-06T05:31:49.289Z,10.69
2017-07-06T05:32:17.502Z,10.7
2017-07-06T05:32:45.715Z,10.61
2017-07-06T05:33:13.901Z,10.55
2017-07-06T05:33:42.036Z,10.57
2017-07-06T05:34:10.241Z,10.69
2017-07-06T05:34:38.252Z,10.55
2017-07-06T05:35:06.349Z,10.59
2017-07-06T05:35:34.697Z,10.57
2017-07-06T05:36:02.792Z,10.58
2017-07-06T05:36:31.011Z,10.49
2017-07-06T05:36:59.099Z,10.52
2017-07-06T05:37:27.218Z,10.61
2017-07-06T05:37:55.315Z,10.55
2017-07-06T05:38:23.445Z,10.61
2017-07-06T05:38:51.561Z,10.52
2017-07-06T05:39:19.677Z,10.51
2017-07-06T05:39:47.904Z,10.52
2017-07-06T05:40:16.103Z,10.52
2017-07-06T05:40:44.183Z,10.57
2017-07-06T05:41:12.499Z,10.49
2017-07-06T05:41:40.721Z,10.51
2017-07-06T05:42:08.961Z,10.54
2017-07-06T05:42:37.187Z,10.57
2017-07-06T05:43:05.231Z,10.52
2017-07-06T05:43:33.342Z,10.49
2017-07-06T05:44:01.447Z,10.58
2017-07-06T05:44:29.549Z,10.54
2017-07-06T05:44:57.447Z,10.52
2017-07-06T05:45:25.657Z,10.41
2017-07-06T05:45:53.777Z,10.38
2017-07-06T05:46:22.008Z,10.41
2017-07-06T05:46:50.219Z,10.38
2017-07-06T05:47:18.422Z,10.46
2017-07-06T05:47:46.709Z,10.39
2017-07-06T05:48:14.949Z,10.44
2017-07-06T05:48:43.173Z,10.38
2017-07-06T05:49:11.378Z,10.42
2017-07-06T05:49:39.459Z,10.36
2017-07-06T05:50:07.535Z,10.35
2017-07-06T05:50:35.733Z,10.33
2017-07-06T05:51:03.801Z,10.42
2017-07-06T05:51:32.022Z,10.35
2017-07-06T05:52:00.268Z,10.31
2017-07-06T05:52:28.514Z,10.26
2017-07-06T05:52:56.700Z,10.33
2017-07-06T05:53:24.709Z,10.35
2017-07-06T05:53:52.753Z,10.35
2017-07-06T05:54:20.738Z,10.44
2017-07-06T05:54:48.942Z,10.38
2017-07-06T05:55:17.142Z,10.35
2017-07-06T05:55:45.348Z,10.29
2017-07-06T05:56:13.552Z,10.42
2017-07-06T05:56:41.814Z,10.35
2017-07-06T05:57:10.017Z,10.38
2017-07-06T05:57:38.031Z,10.33
2017-07-06T05:58:06.064Z,10.35
2017-07-06T05:58:34.292Z,10.38
2017-07-06T05:59:02.387Z,10.29
2017-07-06T05:59:30.625Z,10.28
2017-07-06T05:59:58.704Z,10.28
2017-07-06T06:00:26.860Z,10.21
2017-07-06T06:00:54.989Z,10.21
2017-07-06T06:01:23.104Z,10.23
2017-07-06T06:01:51.228Z,10.15
2017-07-06T06:02:19.440Z,10.26
2017-07-06T06:02:47.560Z,10.13
2017-07-06T06:03:15.786Z,10.2
2017-07-06T06:03:43.916Z,10.17